Latest Weather Observations for Dunalley

IDT60801

Issued at 2:31 pm EST Sunday 5 April 2020 (issued every 10 minutes, with the page automatically refreshed every 10 minutes)

About weather observations | Map of weather stations | Latest weather observations for TAS | Other Formats
Station Details ID: 094254 Name: DUNALLEY (STROUD POINT) Lat: -42.90 Lon: 147.79 Height: 12.43 m
Data from the previous 72 hours. | See also: Recent months at Dunalley
Date/Time
EST
Temp
°C
App
Temp
°C
Dew
Point
°C
Rel
Hum
%
Delta-T
°C
Wind Press
QNH
hPa
Press
MSL
hPa
Rain since
9am
mm
Dir  Spd
km/h
Gust
km/h
Spd
kts
Gust
kts
05/02:30pm 11.7 4.3 4.2 60 3.4 W 32 46 17 25 996.6 996.6 0.0
05/02:00pm 11.4 4.0 3.9 60 3.4 W 32 41 17 22 996.2 996.2 0.0
05/01:30pm 10.6 3.1 4.3 65 2.8 W 33 48 18 26 995.7 995.7 0.0
05/01:27pm 10.4 3.1 4.3 66 2.7 W 32 43 17 23 995.7 995.7 0.0
05/01:17pm 8.5 -2.1 3.1 69 2.3 W 48 69 26 37 995.7 995.7 0.0
05/01:10pm 8.9 -1.6 3.5 69 2.3 WSW 48 76 26 41 995.4 995.4 0.0
05/01:07pm 9.5 0.4 3.9 68 2.5 WSW 41 76 22 41 995.0 995.0 0.0
05/01:05pm 10.5 2.1 3.5 62 3.1 WSW 37 57 20 31 995.3 995.3 0.0
05/01:00pm 10.6 2.1 3.2 60 3.3 SW 37 43 20 23 995.1 995.1 0.0
05/12:30pm 10.8 3.2 3.8 62 3.1 SW 33 43 18 23 994.6 994.6 0.0
05/12:00pm 10.6 3.2 4.1 64 2.9 SW 32 37 17 20 994.7 994.7 0.0
05/11:30am 10.0 3.7 3.7 65 2.8 SW 26 33 14 18 994.9 994.9 0.0
05/11:00am 9.0 5.4 3.2 67 2.5 WNW 11 15 6 8 995.0 995.0 0.0
05/10:30am 8.7 5.8 2.5 65 2.6 NNW 7 11 4 6 995.0 995.0 0.0
05/10:00am 8.2 6.1 2.0 65 2.6 N 2 4 1 2 995.0 995.0 0.0
05/09:30am 7.9 5.2 2.4 68 2.3 N 6 7 3 4 995.2 995.2 0.0
05/09:00am 8.0 5.7 2.5 68 2.3 N 4 7 2 4 995.4 995.4 5.2
05/08:30am 7.8 4.9 2.5 69 2.2 N 7 9 4 5 995.2 995.2 5.2
05/08:00am 7.6 5.1 1.5 65 2.5 N 4 6 2 3 995.2 995.2 5.2
05/07:30am 7.3 3.9 2.0 69 2.2 N 9 13 5 7 995.4 995.4 5.2
05/07:00am 7.0 4.4 0.9 65 2.5 NNW 4 7 2 4 995.4 995.4 5.2
05/06:30am 6.6 2.6 0.7 66 2.3 N 11 15 6 8 994.9 994.9 5.2
05/06:00am 6.6 4.0 0.7 66 2.3 NNW 4 7 2 4 994.9 994.9 5.2
05/05:30am 6.8 2.4 0.5 64 2.5 NW 13 24 7 13 995.1 995.1 5.2
05/05:00am 6.7 3.1 0.4 64 2.5 NW 9 13 5 7 995.0 995.0 5.2
05/04:30am 7.1 2.8 0.8 64 2.5 NW 13 22 7 12 995.0 995.0 5.2
05/04:00am 7.0 1.9 0.7 64 2.5 NW 17 24 9 13 994.9 994.9 5.2
05/03:30am 7.2 2.0 0.4 62 2.7 NW 17 24 9 13 994.9 994.9 5.2
05/03:00am 7.4 0.5 0.4 61 2.8 WNW 26 41 14 22 994.8 994.8 5.2
05/03:44am 7.6 0.0 0.6 61 2.8 WNW 30 46 16 25 994.9 994.9 5.2
05/03:30am 7.2 2.8 0.4 62 2.7 NW 13 28 7 15 995.1 995.1 5.2
05/03:00am 7.2 0.7 0.6 63 2.6 WNW 24 32 13 17 995.0 995.0 5.2
05/02:30am 7.5 2.4 0.9 63 2.6 NW 17 32 9 17 995.3 995.3 5.2
05/02:00am 7.5 4.3 0.7 62 2.7 NW 7 15 4 8 995.1 995.1 5.2
05/01:30am 7.3 3.8 1.2 65 2.5 WNW 9 15 5 8 994.7 994.7 5.2
05/01:00am 7.2 3.8 1.9 69 2.2 NNW 9 22 5 12 994.7 994.7 5.2
05/12:30am 7.5 3.3 1.6 66 2.4 NW 13 22 7 12 994.9 994.9 5.2
05/12:00am 7.6 3.1 1.9 67 2.4 NW 15 22 8 12 994.8 994.8 5.2
 
Date/Time
EST
Temp
°C
App
Temp
°C
Dew
Point
°C
Rel
Hum
%
Delta-T
°C
Wind Press
QNH
hPa
Press
MSL
hPa
Rain since
9am
mm
Dir  Spd
km/h
Gust
km/h
Spd
kts
Gust
kts
04/11:30pm 8.0 2.7 2.0 66 2.5 NW 19 28 10 15 994.7 994.7 5.2
04/11:00pm 8.2 3.3 2.2 66 2.5 NW 17 24 9 13 994.5 994.5 5.2
04/10:30pm 8.0 3.9 2.3 67 2.4 WNW 13 20 7 11 994.5 994.5 5.2
04/10:00pm 8.4 4.4 2.6 67 2.5 NW 13 20 7 11 994.1 994.1 5.2
04/09:30pm 9.3 4.1 3.3 66 2.6 NW 20 26 11 14 993.9 993.9 5.2
04/09:00pm 9.5 4.3 3.5 66 2.6 WNW 20 26 11 14 993.4 993.4 5.2
04/08:30pm 10.7 3.6 3.7 62 3.1 WSW 30 37 16 20 993.1 993.1 5.2
04/08:00pm 10.5 3.1 4.0 64 2.9 W 32 39 17 21 992.6 992.6 5.2
04/07:30pm 10.7 1.6 4.0 63 3.0 W 41 46 22 25 991.4 991.4 5.2
04/07:00pm 11.2 2.6 4.9 65 2.9 WSW 39 48 21 26 991.1 991.1 5.2
04/06:30pm 11.2 2.3 5.1 66 2.8 W 41 48 22 26 990.6 990.6 5.2
04/06:00pm 11.6 2.2 5.3 65 2.9 WSW 44 56 24 30 990.2 990.2 5.2
04/05:30pm 11.5 2.1 5.4 66 2.8 WSW 44 54 24 29 989.7 989.7 5.2
04/05:14pm 11.5 1.5 6.0 69 2.6 WSW 48 69 26 37 989.2 989.2 5.2
04/05:00pm 12.0 2.4 6.1 67 2.8 WSW 46 57 25 31 989.1 989.1 5.2
04/04:30pm 12.4 3.0 7.1 70 2.6 WSW 46 56 25 30 988.7 988.7 5.2
04/04:00pm 11.4 2.6 7.9 79 1.7 WSW 44 59 24 32 988.4 988.4 5.2
04/03:30pm 12.2 3.6 8.1 76 2.0 SW 43 50 23 27 988.1 988.1 4.6
04/03:00pm 12.2 3.7 8.5 78 1.9 SW 43 52 23 28 987.6 987.6 4.6
04/02:30pm 12.4 4.0 9.6 83 1.4 SW 44 56 24 30 987.3 987.3 4.6
04/02:00pm 12.3 4.3 10.4 88 1.0 SW 43 50 23 27 987.4 987.4 4.6
04/01:30pm 12.0 3.7 10.1 88 1.0 SW 44 57 24 31 987.5 987.5 4.2
04/01:18pm 12.8 7.6 10.2 84 1.3 SW 28 52 15 28 986.9 986.9 3.2
04/01:00pm 14.2 11.2 12.1 87 1.1 SW 19 24 10 13 986.9 986.9 3.0
04/12:30pm 14.2 11.6 12.1 87 1.1 SW 17 19 9 10 986.9 986.9 3.0
04/12:00pm 13.8 11.1 11.7 87 1.1 W 17 22 9 12 986.7 986.7 3.0
04/11:30am 13.4 11.3 11.3 87 1.1 W 13 17 7 9 986.9 986.9 2.8
04/11:00am 13.4 10.6 11.5 88 1.0 WNW 17 20 9 11 987.5 987.5 2.6
04/10:30am 13.6 11.3 11.8 89 1.0 WNW 15 20 8 11 987.7 987.7 2.2
04/10:00am 13.9 13.3 12.3 90 0.9 WNW 7 9 4 5 988.1 988.1 1.4
04/09:30am 14.0 13.9 12.2 89 1.0 ESE 4 6 2 3 987.9 987.9 0.6
04/09:00am 13.9 14.2 12.1 89 1.0 ESE 2 4 1 2 987.6 987.6 5.6
04/08:30am 14.1 14.4 12.3 89 1.0 ESE 2 6 1 3 987.6 987.6 5.4
04/08:00am 13.8 12.7 12.0 89 1.0 WNW 9 15 5 8 988.1 988.1 5.4
04/07:30am 13.4 12.2 11.5 88 1.0 WNW 9 15 5 8 988.8 988.8 5.0
04/07:00am 13.6 11.6 11.5 87 1.1 W 13 19 7 10 989.5 989.5 3.2
04/06:30am 14.1 11.7 11.3 83 1.5 W 15 19 8 10 989.6 989.6 1.0
04/06:00am 14.9 13.4 10.7 76 2.2 WNW 9 9 5 5 990.0 990.0 0.2
04/05:30am 15.2 14.2 10.2 72 2.6 WNW 6 9 3 5 990.4 990.4 0.0
04/05:00am 16.0 12.6 10.7 71 2.8 NNE 19 24 10 13 990.3 990.3 0.0
04/04:30am 15.7 12.7 10.7 72 2.7 NNE 17 20 9 11 990.9 990.9 0.0
04/04:00am 15.7 11.9 11.3 75 2.4 NNE 22 24 12 13 991.2 991.2 0.0
04/03:30am 15.7 12.4 11.5 76 2.3 NNE 20 24 11 13 992.0 992.0 0.0
04/03:00am 15.6 11.8 11.2 75 2.4 NE 22 28 12 15 992.5 992.5 0.0
04/02:30am 15.6 13.5 11.0 74 2.5 NNE 13 19 7 10 993.5 993.5 0.0
04/02:00am 15.8 13.0 11.2 74 2.5 NE 17 24 9 13 993.8 993.8 0.0
04/01:30am 15.6 12.6 10.6 72 2.6 NE 17 20 9 11 994.4 994.4 0.0
04/01:00am 16.1 12.2 10.8 71 2.8 NE 22 30 12 16 994.6 994.6 0.0
04/12:30am 17.1 12.7 10.5 65 3.5 N 24 41 13 22 994.9 994.9 0.0
04/12:00am 17.3 13.7 10.7 65 3.6 NNE 20 30 11 16 995.4 995.4 0.0
 
Date/Time
EST
Temp
°C
App
Temp
°C
Dew
Point
°C
Rel
Hum
%
Delta-T
°C
Wind Press
QNH
hPa
Press
MSL
hPa
Rain since
9am
mm
Dir  Spd
km/h
Gust
km/h
Spd
kts
Gust
kts
03/11:30pm 17.6 12.5 10.5 63 3.8 NNE 28 43 15 23 995.5 995.5 0.0
03/11:00pm 17.6 12.9 10.7 64 3.7 NNE 26 43 14 23 996.2 996.2 0.0
03/10:30pm 17.5 12.9 10.9 65 3.6 N 26 43 14 23 996.5 996.5 0.0
03/10:00pm 17.4 13.8 11.7 69 3.1 N 22 33 12 18 996.8 996.8 0.0
03/09:30pm 17.0 13.3 11.5 70 3.0 NNE 22 30 12 16 997.3 997.3 0.0
03/09:00pm 17.4 13.6 11.2 67 3.4 NNE 22 35 12 19 997.9 997.9 0.0
03/08:30pm 17.9 13.3 11.2 65 3.6 N 26 37 14 20 998.0 998.0 0.0
03/08:00pm 17.9 13.1 11.5 66 3.5 N 28 39 15 21 998.3 998.3 0.0
03/07:30pm 18.3 13.0 11.1 63 3.9 NNE 30 41 16 22 998.3 998.3 0.0
03/07:00pm 18.1 13.9 11.0 63 3.9 NNE 24 37 13 20 998.2 998.2 0.0
03/06:30pm 17.9 14.0 12.1 69 3.2 NNE 24 32 13 17 998.1 998.1 0.0
03/06:00pm 17.6 13.0 12.3 71 2.9 NE 28 33 15 18 998.1 998.1 0.0
03/05:30pm 18.4 12.8 12.2 67 3.4 NE 33 41 18 22 998.1 998.1 0.0
03/05:00pm 17.9 12.4 11.7 67 3.4 NE 32 39 17 21 998.6 998.6 0.0
03/04:30pm 17.9 13.9 11.9 68 3.3 NE 24 30 13 16 999.1 999.1 0.0
03/04:00pm 19.6 16.1 12.1 62 4.2 NE 22 26 12 14 999.5 999.5 0.0
03/03:30pm 20.2 18.3 11.9 59 4.6 NNE 13 20 7 11 999.9 999.9 0.0
03/03:00pm 19.7 16.9 11.5 59 4.5 NNE 17 22 9 12 1000.3 1000.3 0.0
03/02:30pm 20.0 17.5 12.3 61 4.3 NNE 17 22 9 12 1000.5 1000.5 0.0
03/02:00pm 19.1 18.0 11.9 63 4.0 NNE 9 17 5 9 1000.9 1000.9 0.0
03/01:30pm 19.3 17.6 10.0 55 5.0 NNW 9 13 5 7 1001.2 1001.2 0.0
03/01:00pm 18.6 17.2 9.4 55 4.9 NNW 7 11 4 6 1001.6 1001.6 0.0
03/12:30pm 18.8 17.5 10.1 57 4.6 NNW 7 13 4 7 1001.8 1001.8 0.0
03/12:00pm 18.6 16.6 10.2 58 4.5 NNW 11 20 6 11 1001.9 1001.9 0.0
03/11:30am 18.4 16.4 10.3 59 4.3 NW 11 15 6 8 1002.1 1002.1 0.0
03/11:00am 18.1 15.4 10.5 61 4.1 NW 15 19 8 10 1002.4 1002.4 0.0
03/10:30am 18.0 15.8 10.9 63 3.8 WNW 13 19 7 10 1002.4 1002.4 0.0
03/10:00am 17.2 14.9 10.6 65 3.5 NNW 13 17 7 9 1002.6 1002.6 0.0
03/09:30am 16.8 14.4 10.0 64 3.6 NW 13 19 7 10 1002.6 1002.6 0.0
03/09:00am 16.2 14.5 9.8 66 3.4 NW 9 15 5 8 1002.4 1002.4 42.0
03/08:30am 15.8 13.2 9.5 66 3.3 NW 13 19 7 10 1002.3 1002.3 42.0
03/08:00am 15.7 12.8 9.6 67 3.2 WNW 15 20 8 11 1002.1 1002.1 42.0
03/07:30am 15.5 12.6 9.6 68 3.1 WNW 15 22 8 12 1002.1 1002.1 42.0
03/07:00am 15.2 12.5 10.4 73 2.5 WNW 15 20 8 11 1001.6 1001.6 42.0
03/06:30am 15.3 13.5 10.7 74 2.4 WNW 11 17 6 9 1001.2 1001.2 42.0
03/06:00am 15.4 13.2 10.8 74 2.5 NW 13 19 7 10 1000.9 1000.9 42.0
03/05:30am 15.4 12.9 11.2 76 2.2 NW 15 19 8 10 1000.5 1000.5 42.0
03/05:00am 15.7 12.5 11.3 75 2.4 WNW 19 26 10 14 1000.3 1000.3 42.0
03/04:30am 15.5 13.1 11.3 76 2.3 WNW 15 19 8 10 1000.0 1000.0 42.0
03/04:00am 15.7 13.3 11.5 76 2.3 NW 15 20 8 11 999.9 999.9 42.0
03/03:30am 15.4 13.1 11.6 78 2.0 NW 15 28 8 15 999.8 999.8 42.0
03/03:00am 15.4 12.7 11.8 79 2.0 NW 17 24 9 13 999.8 999.8 42.0
03/02:30am 15.5 12.1 12.4 82 1.7 WNW 22 32 12 17 999.7 999.7 42.0
03/02:00am 15.4 13.1 12.9 85 1.4 NW 17 24 9 13 999.5 999.5 42.0
03/01:30am 15.8 12.4 13.6 87 1.2 NW 24 33 13 18 999.4 999.4 42.0
03/01:00am 15.7 13.3 13.9 89 1.0 NW 19 26 10 14 999.3 999.3 42.0
03/12:30am 16.0 14.6 14.5 91 0.9 NW 15 24 8 13 999.6 999.6 42.0
03/12:00am 15.9 16.2 14.6 92 0.7 WSW 6 11 3 6 999.6 999.6 42.0
 
Date/Time
EST
Temp
°C
App
Temp
°C
Dew
Point
°C
Rel
Hum
%
Delta-T
°C
Wind Press
QNH
hPa
Press
MSL
hPa
Rain since
9am
mm
Dir  Spd
km/h
Gust
km/h
Spd
kts
Gust
kts
02/11:30pm 16.2 17.1 15.1 93 0.6 WSW 4 9 2 5 999.8 999.8 42.0
02/11:00pm 15.9 17.1 14.8 93 0.6 NW 2 4 1 2 1000.4 1000.4 42.0
02/10:30pm 15.8 16.6 14.8 94 0.6 W 4 9 2 5 1000.8 1000.8 42.0
02/10:00pm 15.8 16.6 14.8 94 0.6 NNW 4 7 2 4 1001.0 1001.0 42.0
02/09:30pm 15.8 15.6 14.8 94 0.6 WNW 9 11 5 6 1001.2 1001.2 42.0
02/09:00pm 15.8 15.6 14.8 94 0.6 WNW 9 17 5 9 1001.3 1001.3 41.8
02/08:30pm 16.3 16.9 15.3 94 0.6 NE 6 7 3 4 1001.5 1001.5 41.8
02/08:00pm 16.4 14.9 15.3 93 0.6 NE 17 20 9 11 1002.0 1002.0 41.6
02/07:30pm 16.5 14.7 15.4 93 0.6 NE 19 22 10 12 1002.3 1002.3 40.8
02/07:00pm 16.7 15.7 15.6 93 0.6 NE 15 20 8 11 1002.6 1002.6 40.4
02/06:30pm 16.8 15.4 15.5 92 0.8 N 17 22 9 12 1002.7 1002.7 40.2
02/06:06pm 17.2 9.3 15.9 92 0.8 NNE 52 76 28 41 1001.9 1001.9 39.2
02/06:01pm 17.1 7.5 16.0 93 0.6 NE 61 83 33 45 1001.0 1001.0 38.8
02/06:00pm 17.1 7.5 16.0 93 0.7 NE 61 83 33 45 1000.7 1000.7 38.8
02/05:56pm 17.1 8.8 16.0 93 0.6 ENE 54 83 29 45 1000.3 1000.3 38.6
02/05:54pm 17.1 10.0 16.0 93 0.6 ENE 48 72 26 39 1000.7 1000.7 38.4
02/05:30pm 16.9 11.0 15.8 93 0.6 ENE 41 56 22 30 1002.4 1002.4 37.8
02/05:11pm 16.9 10.1 15.8 93 0.6 ENE 46 72 25 39 1002.5 1002.5 36.8
02/05:00pm 16.8 10.3 15.7 93 0.6 E 44 57 24 31 1002.8 1002.8 34.6
02/04:30pm 16.8 9.9 15.7 93 0.6 ENE 46 65 25 35 1004.7 1004.7 30.0
02/04:23pm 16.8 9.6 15.7 93 0.6 ENE 48 69 26 37 1004.8 1004.8 27.8
02/04:00pm 16.8 9.9 15.7 93 0.6 ENE 46 65 25 35 1004.9 1004.9 24.4
02/03:51pm 16.8 10.3 15.7 93 0.6 ENE 44 65 24 35 1005.1 1005.1 23.2

Other formats

Comma delimited format used in spreadsheet applications
http://www.bom.gov.au/fwo/IDT60801/IDT60801.94951.axf

JavaScript Object Notation format (JSON) in row-major order
http://www.bom.gov.au/fwo/IDT60801/IDT60801.94951.json

Data quality

Most of these data are generated automatically and are frequently updated. Quality checks on data are not normally performed. It is possible for incorrect values to appear. Refer to information at About Latest Weather Observations and please check the disclaimer before using these data.